Time;durP1;ratioP1;P1;durP2;ratioP2;P2;SDS_P1;SDS_P2;PMS_P1;PMS_P2;Temp;Humidity;BMP_temperature;BMP_pressure;BME280_temperature;BME280_humidity;BME280_pressure;Samples;Min_cycle;Max_cycle;Signal;HPM_P1;HPM_P2
2023/03/07 00:01:35;;;;;;;7.72;4.55;;;8.30;74.40;;;;;;5104027;28;20376;-62
2023/03/07 00:04:02;;;;;;;7.65;4.50;;;8.20;74.40;;;;;;5093657;28;20020;-61
2023/03/07 00:06:28;;;;;;;8.85;4.13;;;8.20;74.50;;;;;;5083036;28;20441;-61
2023/03/07 00:08:59;;;;;;;8.75;4.28;;;8.30;74.50;;;;;;5093101;28;20356;-61
2023/03/07 00:11:26;;;;;;;7.10;3.83;;;8.30;74.60;;;;;;5096128;28;20039;-61
2023/03/07 00:13:52;;;;;;;7.20;3.95;;;8.30;74.60;;;;;;5093785;28;20099;-61
2023/03/07 00:16:20;;;;;;;7.75;4.00;;;8.30;74.60;;;;;;5093802;28;20111;-61
2023/03/07 00:18:46;;;;;;;7.95;4.22;;;8.30;74.70;;;;;;5092891;28;20032;-61
2023/03/07 00:21:15;;;;;;;8.45;4.30;;;8.30;74.70;;;;;;5095525;28;20103;-61
2023/03/07 00:23:42;;;;;;;8.38;4.15;;;8.20;75.30;;;;;;5093679;28;20070;-61
2023/03/07 00:26:13;;;;;;;9.25;4.43;;;8.30;74.70;;;;;;5094089;28;20036;-61
2023/03/07 00:28:41;;;;;;;8.73;4.30;;;8.30;74.70;;;;;;5097908;28;20115;-61
2023/03/07 00:31:09;;;;;;;9.48;4.10;;;8.30;74.70;;;;;;5094999;28;20161;-61
2023/03/07 00:33:36;;;;;;;8.43;4.35;;;8.20;74.80;;;;;;5078197;28;20060;-61
2023/03/07 00:36:09;;;;;;;8.93;4.40;;;8.20;74.80;;;;;;5097396;28;20072;-61
2023/03/07 00:38:35;;;;;;;7.95;4.10;;;8.30;74.80;;;;;;5076001;28;20023;-61
2023/03/07 00:41:05;;;;;;;7.97;4.50;;;8.30;74.80;;;;;;5096796;28;20102;-61
2023/03/07 00:43:31;;;;;;;8.18;4.00;;;8.30;74.70;;;;;;5078837;28;20073;-61
2023/03/07 00:45:57;;;;;;;7.20;3.83;;;8.30;74.60;;;;;;5094431;28;20080;-61
2023/03/07 00:48:24;;;;;;;8.10;3.85;;;8.30;74.60;;;;;;5094065;28;20027;-61
2023/03/07 00:50:51;;;;;;;7.78;3.90;;;8.30;74.60;;;;;;5092474;28;20028;-61
2023/03/07 00:53:17;;;;;;;8.70;3.95;;;8.30;74.60;;;;;;5088479;28;21051;-61
2023/03/07 00:55:57;;;;;;;9.85;3.88;;;8.30;74.60;;;;;;5094881;28;20047;-61
2023/03/07 00:58:23;;;;;;;6.70;3.25;;;8.30;74.60;;;;;;5118524;28;20039;-61
2023/03/07 01:00:50;;;;;;;8.50;3.58;;;8.30;74.60;;;;;;5092222;28;20073;-61
2023/03/07 01:03:16;;;;;;;7.45;3.65;;;8.30;74.60;;;;;;5073695;28;20107;-61
2023/03/07 01:05:42;;;;;;;10.38;3.78;;;8.30;74.50;;;;;;5088425;28;20022;-61
2023/03/07 01:08:08;;;;;;;9.15;3.90;;;8.30;74.60;;;;;;5090977;28;20020;-61
2023/03/07 01:10:33;;;;;;;7.97;4.15;;;8.30;74.60;;;;;;5092091;28;20040;-61
2023/03/07 01:13:00;;;;;;;8.07;3.90;;;8.30;74.60;;;;;;5094488;28;20111;-61
2023/03/07 01:15:26;;;;;;;8.60;5.05;;;8.30;74.50;;;;;;5092017;28;20045;-61
2023/03/07 01:17:52;;;;;;;9.88;5.00;;;8.30;74.60;;;;;;5092270;28;20080;-61
2023/03/07 01:20:18;;;;;;;10.55;5.45;;;8.30;74.60;;;;;;5100553;28;20023;-61
2023/03/07 01:22:44;;;;;;;10.15;5.30;;;8.30;74.60;;;;;;5092085;28;20024;-61
2023/03/07 01:25:13;;;;;;;11.02;5.25;;;8.30;74.80;;;;;;5092121;28;20039;-61
2023/03/07 01:27:39;;;;;;;10.27;5.18;;;8.30;74.90;;;;;;5091782;28;20034;-61
2023/03/07 01:30:07;;;;;;;9.80;5.40;;;8.30;74.90;;;;;;5092128;28;20097;-61
2023/03/07 01:32:35;;;;;;;11.18;6.55;;;8.30;74.90;;;;;;5078687;28;20337;-60
2023/03/07 01:35:01;;;;;;;12.60;6.43;;;8.30;74.90;;;;;;5086435;28;20111;-61
2023/03/07 01:37:27;;;;;;;11.55;6.25;;;8.30;74.90;;;;;;5092406;28;20032;-61
2023/03/07 01:39:53;;;;;;;12.38;5.93;;;8.30;74.90;;;;;;5076901;28;20027;-61
2023/03/07 01:42:21;;;;;;;10.10;5.68;;;8.30;75.00;;;;;;5092175;28;20403;-61
2023/03/07 01:44:58;;;;;;;10.90;6.40;;;8.30;75.00;;;;;;5072590;28;20048;-61
2023/03/07 01:47:24;;;;;;;9.65;5.63;;;8.30;75.10;;;;;;5101239;28;20031;-61
2023/03/07 01:49:52;;;;;;;10.65;6.07;;;8.30;75.00;;;;;;5104624;28;20074;-61
2023/03/07 01:52:34;;;;;;;13.73;6.05;;;8.30;75.10;;;;;;5095500;28;20028;-61
2023/03/07 01:55:29;;;;;;;11.07;5.88;;;8.30;75.70;;;;;;5099030;28;20063;-61
2023/03/07 01:58:05;;;;;;;9.18;5.35;;;8.30;75.10;;;;;;5106439;28;20024;-61
2023/03/07 02:00:31;;;;;;;9.43;5.25;;;8.30;75.10;;;;;;5111842;28;20032;-61
2023/03/07 02:03:09;;;;;;;11.13;5.45;;;8.30;75.10;;;;;;5095231;28;20490;-61
2023/03/07 02:05:54;;;;;;;10.73;6.15;;;8.30;75.10;;;;;;5107057;28;20123;-61
2023/03/07 02:08:23;;;;;;;10.25;5.70;;;8.40;75.20;;;;;;5093386;28;20024;-61
2023/03/07 02:10:49;;;;;;;10.50;5.47;;;8.30;75.20;;;;;;5089997;28;20031;-61
2023/03/07 02:13:15;;;;;;;10.23;4.97;;;8.30;75.10;;;;;;5096226;28;20437;-61
2023/03/07 02:15:42;;;;;;;8.63;5.07;;;8.30;75.20;;;;;;5074651;28;20016;-61
2023/03/07 02:18:10;;;;;;;10.82;5.28;;;8.30;75.30;;;;;;5082996;28;20016;-62
2023/03/07 02:21:00;;;;;;;8.43;4.57;;;8.30;75.30;;;;;;5083180;28;20051;-61
2023/03/07 02:23:44;;;;;;;9.00;4.93;;;8.30;75.30;;;;;;5063929;28;20053;-61
2023/03/07 02:26:21;;;;;;;8.00;4.65;;;8.30;75.30;;;;;;5107508;28;20059;-61
2023/03/07 02:28:48;;;;;;;8.70;4.63;;;8.30;75.40;;;;;;5085382;28;20043;-61
2023/03/07 02:31:14;;;;;;;9.05;4.57;;;8.30;75.50;;;;;;5084648;28;20027;-61
2023/03/07 02:33:40;;;;;;;9.35;5.00;;;8.30;75.50;;;;;;5095056;28;20020;-61
2023/03/07 02:36:13;;;;;;;9.63;4.90;;;8.30;75.60;;;;;;5076693;28;20103;-61
2023/03/07 02:38:49;;;;;;;9.32;5.07;;;8.30;75.70;;;;;;5094265;28;20024;-61
2023/03/07 02:41:21;;;;;;;9.55;4.78;;;8.20;75.80;;;;;;5095175;28;20020;-62
2023/03/07 02:43:47;;;;;;;9.35;4.57;;;8.20;75.80;;;;;;5095049;28;20215;-61
2023/03/07 02:46:13;;;;;;;8.30;4.57;;;8.20;75.80;;;;;;5097879;28;20111;-61
2023/03/07 02:48:39;;;;;;;7.80;4.55;;;8.20;75.80;;;;;;5094383;28;20036;-61
2023/03/07 02:51:05;;;;;;;7.68;3.97;;;8.20;75.80;;;;;;5084703;28;20072;-61
2023/03/07 02:53:31;;;;;;;7.80;4.38;;;8.20;75.80;;;;;;5087976;28;20513;-61
2023/03/07 02:55:56;;;;;;;8.40;4.68;;;8.20;75.90;;;;;;5096345;28;20036;-61
2023/03/07 02:58:22;;;;;;;8.45;4.05;;;8.30;75.90;;;;;;5094385;28;20020;-61
2023/03/07 03:00:48;;;;;;;9.07;4.40;;;8.30;75.90;;;;;;5072840;28;20040;-61
2023/03/07 03:03:14;;;;;;;8.95;5.15;;;8.20;75.80;;;;;;5094557;28;20031;-61
2023/03/07 03:05:39;;;;;;;8.25;4.63;;;8.20;75.80;;;;;;5095827;28;20035;-61
2023/03/07 03:08:06;;;;;;;12.45;5.78;;;8.20;75.80;;;;;;5094229;28;20024;-61
2023/03/07 03:10:31;;;;;;;7.50;4.03;;;8.20;75.90;;;;;;5095450;28;20400;-61
2023/03/07 03:12:59;;;;;;;9.00;4.97;;;8.20;75.90;;;;;;5076674;28;20017;-61
2023/03/07 03:15:25;;;;;;;8.13;4.40;;;8.20;75.90;;;;;;5095196;28;20027;-61
2023/03/07 03:17:53;;;;;;;8.10;4.72;;;8.20;75.90;;;;;;5094073;28;20103;-61
2023/03/07 03:20:18;;;;;;;9.25;4.13;;;8.20;75.80;;;;;;5093389;28;20040;-61
2023/03/07 03:22:44;;;;;;;7.93;4.22;;;8.20;75.80;;;;;;5094043;28;20024;-61
2023/03/07 03:25:13;;;;;;;8.45;4.68;;;8.20;75.80;;;;;;5093967;28;20036;-61
2023/03/07 03:27:40;;;;;;;9.55;4.80;;;8.20;75.80;;;;;;5091015;28;20028;-61
2023/03/07 03:30:09;;;;;;;7.55;4.00;;;8.20;75.70;;;;;;5093835;28;20384;-61
2023/03/07 03:32:39;;;;;;;10.10;4.32;;;8.10;75.60;;;;;;5091963;28;20047;-61
2023/03/07 03:35:06;;;;;;;10.43;4.55;;;8.20;75.60;;;;;;5093992;28;20020;-62
2023/03/07 03:37:33;;;;;;;8.25;3.85;;;8.20;75.60;;;;;;5106122;28;20035;-61
2023/03/07 03:40:04;;;;;;;7.05;3.45;;;8.10;75.50;;;;;;5093533;28;20031;-61
2023/03/07 03:42:30;;;;;;;10.48;4.20;;;8.20;75.60;;;;;;5090552;28;20435;-61
2023/03/07 03:44:56;;;;;;;9.15;4.55;;;8.10;75.50;;;;;;5092948;28;20059;-61
2023/03/07 03:47:21;;;;;;;9.73;4.22;;;8.10;75.50;;;;;;5109553;28;20115;-61
2023/03/07 03:49:47;;;;;;;8.05;4.30;;;8.10;75.50;;;;;;5096532;28;20118;-61
2023/03/07 03:52:14;;;;;;;9.57;3.97;;;8.10;75.60;;;;;;5077530;28;20142;-61
2023/03/07 03:54:40;;;;;;;12.13;5.25;;;8.10;75.60;;;;;;5092463;28;20036;-61
2023/03/07 03:57:06;;;;;;;8.43;4.45;;;8.10;75.60;;;;;;5096955;28;20024;-61
2023/03/07 03:59:32;;;;;;;9.88;4.43;;;8.10;75.60;;;;;;5083047;28;20359;-61
2023/03/07 04:01:58;;;;;;;10.57;5.05;;;8.10;75.60;;;;;;5091216;28;20159;-61
2023/03/07 04:04:24;;;;;;;10.30;4.57;;;8.10;75.60;;;;;;5096818;28;20028;-61
2023/03/07 04:06:50;;;;;;;11.32;4.88;;;8.10;75.60;;;;;;5092278;28;20031;-61
2023/03/07 04:09:16;;;;;;;9.40;4.97;;;8.10;75.60;;;;;;5103498;28;20024;-61
2023/03/07 04:11:45;;;;;;;9.45;5.53;;;8.10;75.60;;;;;;5076552;28;20027;-61
2023/03/07 04:14:11;;;;;;;9.98;4.95;;;8.10;75.70;;;;;;5091231;28;20016;-61
2023/03/07 04:16:36;;;;;;;10.45;5.10;;;8.10;75.70;;;;;;5093290;28;20448;-61
2023/03/07 04:19:02;;;;;;;11.23;5.63;;;8.10;75.80;;;;;;5074870;28;20070;-60
2023/03/07 04:21:28;;;;;;;9.57;5.55;;;8.00;76.40;;;;;;5093113;28;20051;-61
2023/03/07 04:23:58;;;;;;;10.30;5.32;;;8.10;75.90;;;;;;5100558;28;20017;-61
2023/03/07 04:26:27;;;;;;;10.70;6.25;;;8.10;76.00;;;;;;5085900;28;20086;-61
2023/03/07 04:28:53;;;;;;;11.65;5.60;;;8.10;76.00;;;;;;5084841;28;20334;-61
2023/03/07 04:31:25;;;;;;;10.73;6.10;;;8.10;76.00;;;;;;5093273;28;20110;-61
2023/03/07 04:33:52;;;;;;;11.98;5.90;;;8.10;76.00;;;;;;5101270;28;20417;-61
2023/03/07 04:36:19;;;;;;;10.30;6.28;;;8.10;76.00;;;;;;5073098;28;20445;-61
2023/03/07 04:38:46;;;;;;;12.52;6.00;;;8.10;76.00;;;;;;5092223;28;20020;-61
2023/03/07 04:41:15;;;;;;;11.60;6.38;;;8.10;76.10;;;;;;5090620;28;20022;-61
2023/03/07 04:43:42;;;;;;;11.82;6.15;;;8.10;76.10;;;;;;5080392;28;20020;-61
2023/03/07 04:46:10;;;;;;;15.23;6.15;;;8.10;76.10;;;;;;5090943;28;20027;-61
2023/03/07 04:48:35;;;;;;;9.63;5.80;;;8.10;76.10;;;;;;5073749;28;20043;-61
2023/03/07 04:51:02;;;;;;;12.63;6.40;;;8.10;76.00;;;;;;5094410;28;20055;-61
2023/03/07 04:53:28;;;;;;;11.23;6.32;;;8.10;76.00;;;;;;5100699;28;20369;-61
2023/03/07 04:56:04;;;;;;;11.23;6.45;;;8.10;76.10;;;;;;5097387;28;20028;-61
2023/03/07 04:58:31;;;;;;;9.23;5.35;;;8.10;76.10;;;;;;5108806;28;20025;-61
2023/03/07 05:00:59;;;;;;;8.80;5.00;;;8.10;76.10;;;;;;5075466;28;20054;-61
2023/03/07 05:03:26;;;;;;;10.02;5.28;;;8.00;76.00;;;;;;5093691;28;20056;-61
2023/03/07 05:05:52;;;;;;;11.15;4.95;;;8.00;76.00;;;;;;5091622;28;20050;-61
2023/03/07 05:08:18;;;;;;;10.55;5.18;;;8.00;76.10;;;;;;5092340;28;20079;-61
2023/03/07 05:10:44;;;;;;;10.48;5.05;;;8.00;76.00;;;;;;5093031;28;20028;-61
2023/03/07 05:13:10;;;;;;;10.40;4.60;;;8.00;76.00;;;;;;5094949;28;20039;-61
2023/03/07 05:15:36;;;;;;;11.07;4.55;;;8.00;76.10;;;;;;5087203;28;20020;-61
2023/03/07 05:18:02;;;;;;;10.18;4.25;;;8.00;76.10;;;;;;5093740;28;20024;-61
2023/03/07 05:20:32;;;;;;;9.20;4.35;;;8.00;76.10;;;;;;5100848;28;20101;-61
2023/03/07 05:22:58;;;;;;;9.82;4.57;;;8.00;76.00;;;;;;5096044;28;20028;-61
2023/03/07 05:25:24;;;;;;;9.43;4.90;;;8.00;76.10;;;;;;5095795;28;20130;-61
2023/03/07 05:27:51;;;;;;;11.20;4.32;;;8.00;76.10;;;;;;5090189;28;20472;-60
2023/03/07 05:30:17;;;;;;;9.02;4.40;;;8.00;76.10;;;;;;5089333;28;20029;-60
2023/03/07 05:32:42;;;;;;;13.77;4.75;;;8.00;76.70;;;;;;5094372;28;20072;-61
2023/03/07 05:35:11;;;;;;;10.18;4.30;;;7.90;76.00;;;;;;5095444;28;20513;-60
2023/03/07 05:37:37;;;;;;;11.52;4.68;;;7.90;76.10;;;;;;5096272;28;20034;-61
2023/03/07 05:40:14;;;;;;;9.05;4.30;;;7.90;76.10;;;;;;5095386;28;20043;-61
2023/03/07 05:42:44;;;;;;;8.95;4.43;;;7.90;76.10;;;;;;5095757;28;20024;-61
2023/03/07 05:45:10;;;;;;;9.85;4.70;;;7.80;76.10;;;;;;5094192;28;20049;-61
2023/03/07 05:47:37;;;;;;;11.15;4.40;;;7.80;76.10;;;;;;5095818;28;20551;-61
2023/03/07 05:50:06;;;;;;;9.45;4.68;;;7.80;76.10;;;;;;5094671;28;20027;-61
2023/03/07 05:52:32;;;;;;;11.65;5.22;;;7.80;76.10;;;;;;5097696;28;20025;-61
2023/03/07 05:54:58;;;;;;;9.25;4.18;;;7.80;76.10;;;;;;5091359;28;20028;-61
2023/03/07 05:57:24;;;;;;;10.10;3.90;;;7.80;76.10;;;;;;5098596;28;20062;-61
2023/03/07 05:59:49;;;;;;;10.93;3.22;;;7.80;76.10;;;;;;5095700;28;20038;-61
2023/03/07 06:02:16;;;;;;;8.75;3.22;;;7.80;76.00;;;;;;5103348;28;20510;-61
2023/03/07 06:04:41;;;;;;;7.90;3.28;;;7.70;75.90;;;;;;5100688;28;20404;-61
2023/03/07 06:07:07;;;;;;;4.95;2.53;;;7.70;75.80;;;;;;5076395;28;20066;-61
2023/03/07 06:09:33;;;;;;;8.80;2.65;;;7.70;75.70;;;;;;5089351;28;20093;-62
2023/03/07 06:12:00;;;;;;;6.10;2.97;;;7.70;75.70;;;;;;5095876;28;20020;-61
2023/03/07 06:14:25;;;;;;;8.25;2.92;;;7.70;75.70;;;;;;5095384;28;20047;-61
2023/03/07 06:16:51;;;;;;;5.28;2.40;;;7.70;75.70;;;;;;5069365;28;20116;-61
2023/03/07 06:19:17;;;;;;;5.90;2.42;;;7.60;75.70;;;;;;5095707;28;20034;-61
2023/03/07 06:21:43;;;;;;;7.20;3.28;;;7.70;75.70;;;;;;5096086;28;20163;-61
2023/03/07 06:24:09;;;;;;;9.07;3.30;;;7.60;75.70;;;;;;5095860;28;20024;-61
2023/03/07 06:26:35;;;;;;;6.30;2.70;;;7.60;75.60;;;;;;5087613;28;20115;-62
2023/03/07 06:29:02;;;;;;;6.63;2.55;;;7.60;75.70;;;;;;5087823;28;20075;-61
2023/03/07 06:31:28;;;;;;;6.43;2.10;;;7.60;76.30;;;;;;5094962;28;20051;-61
2023/03/07 06:33:54;;;;;;;5.13;1.85;;;7.60;75.60;;;;;;5081375;28;20028;-61
2023/03/07 06:36:21;;;;;;;4.20;1.45;;;7.50;75.40;;;;;;5095183;28;20591;-61
2023/03/07 06:38:52;;;;;;;3.03;1.15;;;7.50;75.10;;;;;;5095643;28;20016;-61
2023/03/07 06:41:18;;;;;;;3.42;1.02;;;7.40;74.90;;;;;;5095138;28;20016;-61
2023/03/07 06:43:45;;;;;;;3.05;1.00;;;7.30;74.80;;;;;;5095414;28;20417;-61
2023/03/07 06:46:11;;;;;;;3.33;1.15;;;7.20;74.80;;;;;;5099198;28;20107;-61
2023/03/07 06:48:40;;;;;;;3.75;1.10;;;7.20;74.80;;;;;;5104625;28;20447;-61
2023/03/07 06:51:10;;;;;;;3.35;1.10;;;7.10;74.70;;;;;;5094646;28;20056;-62
2023/03/07 06:53:39;;;;;;;2.60;0.98;;;7.00;74.70;;;;;;5094266;28;20036;-61
2023/03/07 06:56:05;;;;;;;2.58;0.85;;;7.00;74.70;;;;;;5094110;28;20460;-61
2023/03/07 06:58:32;;;;;;;3.42;1.20;;;7.00;74.60;;;;;;5090504;28;20030;-61
2023/03/07 07:00:58;;;;;;;3.53;1.27;;;7.00;74.60;;;;;;5094643;28;20036;-61
2023/03/07 07:03:25;;;;;;;2.80;0.90;;;7.00;74.50;;;;;;5077708;28;20028;-62
2023/03/07 07:05:51;;;;;;;4.20;1.17;;;7.00;75.00;;;;;;5096663;28;20413;-62
2023/03/07 07:08:16;;;;;;;4.72;1.13;;;7.00;74.20;;;;;;5075276;28;20122;-62
2023/03/07 07:10:43;;;;;;;5.25;1.20;;;6.90;74.10;;;;;;5094689;28;20028;-62
2023/03/07 07:13:11;;;;;;;4.00;0.98;;;7.00;74.00;;;;;;5094551;28;20046;-63
2023/03/07 07:15:37;;;;;;;1.80;0.80;;;7.00;74.00;;;;;;5094343;28;20108;-63
2023/03/07 07:18:03;;;;;;;3.20;1.20;;;7.00;74.00;;;;;;5092211;28;20024;-61
2023/03/07 07:20:31;;;;;;;3.38;1.00;;;7.00;73.90;;;;;;5088406;28;20024;-62
2023/03/07 07:22:57;;;;;;;1.42;0.80;;;6.90;73.80;;;;;;5093186;28;20035;-62
2023/03/07 07:25:22;;;;;;;2.05;0.93;;;6.90;74.00;;;;;;5095125;28;20119;-62
2023/03/07 07:27:48;;;;;;;5.78;1.23;;;6.90;74.00;;;;;;5088691;28;20032;-62
2023/03/07 07:30:14;;;;;;;2.40;0.95;;;6.80;73.90;;;;;;5092439;28;20055;-61
2023/03/07 07:32:40;;;;;;;3.13;1.10;;;6.80;73.90;;;;;;5093200;28;20020;-62
2023/03/07 07:35:07;;;;;;;2.45;0.93;;;6.80;74.00;;;;;;5075884;28;20016;-62
2023/03/07 07:37:33;;;;;;;4.95;1.50;;;6.70;73.90;;;;;;5092694;28;20024;-61
2023/03/07 07:39:58;;;;;;;2.83;1.00;;;6.80;73.90;;;;;;5091473;28;20023;-61
2023/03/07 07:42:24;;;;;;;3.70;1.17;;;6.80;73.90;;;;;;5093509;28;20034;-62
2023/03/07 07:45:04;;;;;;;3.08;1.20;;;6.70;73.90;;;;;;5092164;28;20016;-61
2023/03/07 07:47:30;;;;;;;3.03;1.17;;;6.70;73.90;;;;;;5093426;28;20024;-62
2023/03/07 07:49:56;;;;;;;4.93;1.50;;;6.70;73.90;;;;;;5089039;28;20047;-62
2023/03/07 07:52:22;;;;;;;4.88;1.33;;;6.80;73.80;;;;;;5103358;28;20016;-61
2023/03/07 07:54:49;;;;;;;4.38;1.38;;;6.70;73.80;;;;;;5095918;28;20027;-61
2023/03/07 07:57:15;;;;;;;4.15;1.30;;;6.70;73.70;;;;;;5093991;28;20502;-63
2023/03/07 07:59:41;;;;;;;2.20;1.15;;;6.70;73.70;;;;;;5087008;28;20115;-62
2023/03/07 08:02:12;;;;;;;5.85;1.20;;;6.80;73.80;;;;;;5103908;28;20114;-62
2023/03/07 08:04:38;;;;;;;5.75;1.40;;;6.80;73.70;;;;;;5104974;28;20046;-62
2023/03/07 08:07:04;;;;;;;3.33;1.35;;;6.80;73.60;;;;;;5094379;28;20024;-62
2023/03/07 08:09:33;;;;;;;4.53;1.40;;;6.80;73.60;;;;;;5093307;28;20031;-62
2023/03/07 08:11:59;;;;;;;3.05;1.05;;;6.80;73.70;;;;;;5101507;28;20023;-62
2023/03/07 08:14:25;;;;;;;2.95;1.10;;;6.80;73.70;;;;;;5093452;28;20016;-62
2023/03/07 08:16:51;;;;;;;4.10;1.35;;;6.80;73.70;;;;;;5095534;28;20423;-62
2023/03/07 08:19:17;;;;;;;4.88;1.45;;;6.70;73.70;;;;;;5094143;28;20031;-62
2023/03/07 08:21:42;;;;;;;4.72;1.40;;;6.80;73.70;;;;;;5096639;28;20016;-62
2023/03/07 08:24:08;;;;;;;3.00;1.27;;;6.70;73.60;;;;;;5104457;28;20321;-62
2023/03/07 08:26:34;;;;;;;4.20;1.40;;;6.70;73.60;;;;;;5084947;28;20345;-62
2023/03/07 08:29:00;;;;;;;4.68;1.38;;;6.70;73.60;;;;;;5071783;28;20383;-62
2023/03/07 08:31:25;;;;;;;3.63;1.50;;;6.70;73.70;;;;;;5091944;28;20051;-62
2023/03/07 08:33:51;;;;;;;3.17;1.50;;;6.70;73.70;;;;;;5091320;28;20025;-62
2023/03/07 08:36:18;;;;;;;4.68;1.40;;;6.70;73.80;;;;;;5092720;28;20024;-62
2023/03/07 08:38:51;;;;;;;3.72;1.67;;;6.70;73.70;;;;;;5087360;28;20063;-62
2023/03/07 08:41:18;;;;;;;4.18;1.70;;;6.80;73.70;;;;;;5087492;28;20060;-61
2023/03/07 08:43:43;;;;;;;6.25;1.73;;;6.80;73.60;;;;;;5091621;28;20048;-61
2023/03/07 08:46:09;;;;;;;5.50;1.77;;;6.80;73.50;;;;;;5094488;28;20118;-61
2023/03/07 08:48:35;;;;;;;7.47;2.30;;;6.80;73.50;;;;;;5091547;28;20055;-62
2023/03/07 08:51:07;;;;;;;5.90;2.20;;;6.80;73.50;;;;;;5092928;28;20032;-62
2023/03/07 08:53:33;;;;;;;5.00;2.25;;;6.80;73.60;;;;;;5097552;28;20092;-61
2023/03/07 08:55:59;;;;;;;5.95;2.40;;;6.80;73.60;;;;;;5097303;28;20036;-62
2023/03/07 08:58:24;;;;;;;4.65;1.98;;;6.80;73.60;;;;;;5099087;28;20031;-62
2023/03/07 09:00:50;;;;;;;5.88;2.45;;;6.70;73.60;;;;;;5098663;28;20111;-61
2023/03/07 09:03:16;;;;;;;8.13;2.70;;;6.80;73.60;;;;;;5099378;28;20057;-63
2023/03/07 09:05:42;;;;;;;5.47;2.38;;;6.80;73.60;;;;;;5078645;28;20033;-62
2023/03/07 09:08:07;;;;;;;6.30;2.53;;;6.80;73.60;;;;;;5097092;28;20068;-62
2023/03/07 09:10:34;;;;;;;6.60;2.63;;;6.80;73.50;;;;;;5102399;28;20453;-63
2023/03/07 09:13:00;;;;;;;5.68;2.42;;;6.90;73.40;;;;;;5096839;28;20459;-63
2023/03/07 09:15:26;;;;;;;5.38;2.10;;;6.80;73.30;;;;;;5097866;28;20020;-64
2023/03/07 09:17:51;;;;;;;5.35;2.22;;;6.90;73.40;;;;;;5097871;28;20028;-62
2023/03/07 09:20:17;;;;;;;6.43;2.25;;;6.80;73.40;;;;;;5098051;28;20058;-63
2023/03/07 09:22:44;;;;;;;6.28;2.72;;;6.90;73.50;;;;;;5091305;28;20367;-63
2023/03/07 09:25:10;;;;;;;6.82;2.63;;;6.90;73.50;;;;;;5099310;28;20020;-63
2023/03/07 09:27:35;;;;;;;6.00;2.58;;;6.90;73.40;;;;;;5087195;28;20100;-62
2023/03/07 09:30:01;;;;;;;5.05;2.47;;;6.90;73.40;;;;;;5097589;28;20036;-63
2023/03/07 09:32:27;;;;;;;6.70;2.70;;;7.00;73.40;;;;;;5093883;28;20495;-63
2023/03/07 09:34:53;;;;;;;4.78;2.40;;;7.00;73.40;;;;;;5089551;28;20024;-63
2023/03/07 09:37:18;;;;;;;6.35;2.80;;;7.00;73.40;;;;;;5098137;28;20031;-63
2023/03/07 09:39:44;;;;;;;5.85;2.60;;;7.00;73.40;;;;;;5081734;28;20498;-63
2023/03/07 09:42:20;;;;;;;5.93;2.70;;;7.00;73.40;;;;;;5099237;28;20024;-63
2023/03/07 09:45:13;;;;;;;6.18;2.95;;;7.00;73.40;;;;;;5105759;28;20024;-62
2023/03/07 09:48:23;;;;;;;5.80;2.53;;;7.10;73.30;;;;;;5097103;28;20321;-62
2023/03/07 09:50:54;;;;;;;5.40;2.40;;;7.10;73.20;;;;;;5109487;28;20451;-63
2023/03/07 09:53:45;;;;;;;5.68;2.72;;;7.10;73.30;;;;;;5105873;28;20479;-62
2023/03/07 09:56:30;;;;;;;6.15;2.85;;;7.10;73.20;;;;;;5103177;28;20035;-62
2023/03/07 09:59:03;;;;;;;6.20;2.88;;;7.20;73.30;;;;;;5087489;28;20024;-63
2023/03/07 10:01:32;;;;;;;6.18;2.88;;;7.10;73.20;;;;;;5101332;28;20031;-62
2023/03/07 10:04:01;;;;;;;6.28;2.95;;;7.20;73.90;;;;;;5094269;28;20036;-62
2023/03/07 10:06:40;;;;;;;5.88;2.97;;;7.20;73.20;;;;;;5100958;28;20051;-62
2023/03/07 10:09:26;;;;;;;6.70;2.80;;;7.20;73.20;;;;;;5096010;28;20024;-63
2023/03/07 10:12:04;;;;;;;6.40;3.00;;;7.20;73.00;;;;;;5100915;28;20104;-63
2023/03/07 10:14:46;;;;;;;6.03;3.15;;;7.20;73.10;;;;;;5085839;28;20028;-63
2023/03/07 10:17:46;;;;;;;7.10;2.67;;;7.20;73.20;;;;;;5100818;28;20110;-62
2023/03/07 10:20:34;;;;;;;6.43;2.92;;;7.30;73.20;;;;;;5094398;28;20048;-62
2023/03/07 10:23:24;;;;;;;4.78;2.40;;;7.30;73.20;;;;;;5092723;28;20416;-62
2023/03/07 10:25:57;;;;;;;5.25;2.60;;;7.30;73.10;;;;;;5092989;28;20429;-62
2023/03/07 10:28:27;;;;;;;6.85;2.58;;;7.20;73.00;;;;;;5094158;28;20032;-62
2023/03/07 10:30:58;;;;;;;5.25;2.25;;;7.20;73.20;;;;;;5093975;28;20111;-61
2023/03/07 10:33:26;;;;;;;4.88;2.47;;;7.30;73.40;;;;;;5096292;28;20106;-61
2023/03/07 10:36:05;;;;;;;5.70;2.47;;;7.30;73.40;;;;;;5096589;28;20443;-61
2023/03/07 10:38:45;;;;;;;6.82;2.40;;;7.30;73.20;;;;;;5096145;28;20039;-61
2023/03/07 10:41:15;;;;;;;4.80;2.03;;;7.40;73.20;;;;;;5078112;28;20032;-61
2023/03/07 10:43:42;;;;;;;5.18;2.20;;;7.50;73.10;;;;;;5102211;28;20046;-61
2023/03/07 10:46:15;;;;;;;5.60;1.80;;;7.60;73.70;;;;;;5101119;28;20027;-62
2023/03/07 10:48:51;;;;;;;4.90;2.20;;;7.70;73.00;;;;;;5095493;28;20099;-62
2023/03/07 10:51:34;;;;;;;5.60;2.47;;;7.70;73.00;;;;;;5094657;28;20382;-62
2023/03/07 10:54:01;;;;;;;4.68;2.08;;;7.70;72.90;;;;;;5098104;28;20119;-62
2023/03/07 10:56:26;;;;;;;6.05;2.28;;;7.80;72.90;;;;;;5097298;28;20107;-62
2023/03/07 10:59:10;;;;;;;5.28;2.17;;;7.80;73.00;;;;;;5093442;28;20480;-62
2023/03/07 11:01:53;;;;;;;5.43;2.20;;;7.80;73.00;;;;;;5092464;28;20032;-62
2023/03/07 11:04:21;;;;;;;4.85;1.95;;;7.80;72.90;;;;;;5104794;28;20035;-62
2023/03/07 11:06:53;;;;;;;3.72;1.70;;;7.80;73.00;;;;;;5094629;28;20028;-62
2023/03/07 11:09:33;;;;;;;5.07;1.80;;;7.80;73.10;;;;;;5083449;28;20413;-62
2023/03/07 11:12:04;;;;;;;3.25;1.70;;;7.80;73.20;;;;;;5093271;28;20042;-62
2023/03/07 11:14:46;;;;;;;4.15;1.85;;;7.80;73.10;;;;;;5093187;28;20028;-62
2023/03/07 11:17:23;;;;;;;4.32;1.80;;;7.80;73.00;;;;;;5083797;28;20119;-62
2023/03/07 11:19:54;;;;;;;5.20;1.83;;;7.80;73.10;;;;;;5085414;28;20028;-61
2023/03/07 11:22:25;;;;;;;3.30;1.63;;;7.80;73.00;;;;;;5092278;28;20033;-62
2023/03/07 11:25:00;;;;;;;3.85;1.80;;;7.80;73.00;;;;;;5078063;28;20032;-62
2023/03/07 11:27:38;;;;;;;3.72;1.83;;;7.80;73.10;;;;;;5080991;28;20070;-62
2023/03/07 11:30:15;;;;;;;4.20;1.83;;;7.80;73.10;;;;;;5080522;28;20028;-62
2023/03/07 11:33:06;;;;;;;5.68;1.98;;;7.80;73.10;;;;;;5082097;28;20426;-61
2023/03/07 11:35:55;;;;;;;6.00;1.90;;;7.80;73.10;;;;;;5069015;28;20056;-63
2023/03/07 11:38:34;;;;;;;6.32;1.90;;;7.80;73.10;;;;;;5082128;28;20079;-63
2023/03/07 11:41:12;;;;;;;4.45;1.77;;;7.80;73.00;;;;;;5090460;28;20508;-62
2023/03/07 11:44:15;;;;;;;5.35;2.13;;;7.80;73.00;;;;;;5080257;28;20046;-62
2023/03/07 11:46:46;;;;;;;4.38;1.42;;;7.90;73.00;;;;;;5082661;28;20028;-65
2023/03/07 11:49:33;;;;;;;4.93;1.75;;;7.90;73.00;;;;;;5081435;28;20024;-63
2023/03/07 11:52:11;;;;;;;3.60;1.50;;;7.90;73.00;;;;;;5075737;28;20291;-62
2023/03/07 11:54:58;;;;;;;6.22;1.75;;;7.90;73.10;;;;;;5076129;28;20500;-62
2023/03/07 11:58:09;;;;;;;4.40;1.73;;;7.90;73.10;;;;;;5081304;28;20034;-61
2023/03/07 12:00:59;;;;;;;4.75;1.75;;;7.80;72.90;;;;;;5079251;28;20184;-62
2023/03/07 12:04:00;;;;;;;3.70;1.52;;;7.80;73.20;;;;;;5089818;28;20056;-61
2023/03/07 12:07:01;;;;;;;4.95;1.63;;;7.80;73.10;;;;;;5075880;28;20071;-62
2023/03/07 12:09:32;;;;;;;3.17;1.17;;;7.70;73.20;;;;;;5053947;28;20414;-62
2023/03/07 12:11:58;;;;;;;;;;;7.70;73.30;;;;;;5090600;28;20399;-62
2023/03/07 12:14:45;;;;;;;3.00;1.40;;;7.70;73.20;;;;;;5077172;28;19912;-63
2023/03/07 12:17:52;;;;;;;4.82;1.38;;;7.70;73.10;;;;;;5076436;28;20149;-61
2023/03/07 12:21:06;;;;;;;5.03;1.55;;;7.80;73.10;;;;;;5053326;28;20039;-61
2023/03/07 12:23:43;;;;;;;3.22;1.40;;;7.80;73.20;;;;;;5040061;28;20115;-61
2023/03/07 12:26:32;;;;;;;7.43;1.85;;;7.70;73.30;;;;;;5078906;28;20364;-61
2023/03/07 12:29:16;;;;;;;4.45;1.70;;;7.70;73.40;;;;;;5072745;28;20513;-62
2023/03/07 12:31:49;;;;;;;4.35;1.60;;;7.70;73.30;;;;;;5086277;28;20340;-62
2023/03/07 12:35:18;;;;;;;3.78;1.67;;;7.60;73.40;;;;;;5078123;28;20413;-61
2023/03/07 12:37:54;;;;;;;3.22;1.20;;;7.50;73.50;;;;;;5048689;28;20573;-61
2023/03/07 12:40:27;;;;;;;2.90;1.27;;;7.40;73.40;;;;;;5083908;28;20111;-62
2023/03/07 12:43:02;;;;;;;3.92;1.40;;;7.30;73.40;;;;;;5092155;28;20043;-61
2023/03/07 12:45:46;;;;;;;2.50;0.95;;;7.30;73.40;;;;;;5092535;28;20035;-61
2023/03/07 12:48:37;;;;;;;1.98;1.10;;;7.30;73.40;;;;;;5092502;28;20056;-62
2023/03/07 12:51:20;;;;;;;2.50;1.10;;;7.30;73.40;;;;;;5089255;28;20039;-62
2023/03/07 12:53:56;;;;;;;4.00;1.42;;;7.30;73.50;;;;;;5090454;28;20016;-61
2023/03/07 12:56:40;;;;;;;3.40;1.05;;;7.30;73.40;;;;;;5092618;28;20126;-61
2023/03/07 12:59:14;;;;;;;3.75;1.13;;;7.30;73.30;;;;;;5090147;28;20085;-62
2023/03/07 13:01:49;;;;;;;3.92;1.10;;;7.30;73.20;;;;;;5092166;28;20085;-61
2023/03/07 13:04:32;;;;;;;2.47;0.90;;;7.30;73.10;;;;;;5089014;28;20031;-61
2023/03/07 13:07:11;;;;;;;3.88;1.10;;;7.30;73.10;;;;;;5096857;28;20488;-62
2023/03/07 13:09:40;;;;;;;4.50;1.20;;;7.30;73.30;;;;;;5097913;28;20329;-62
2023/03/07 13:12:15;;;;;;;2.67;1.08;;;7.30;73.20;;;;;;5091906;28;20184;-62
2023/03/07 13:14:46;;;;;;;2.65;1.08;;;7.30;73.10;;;;;;5089950;28;20020;-61